Time;durP1;ratioP1;P1;durP2;ratioP2;P2;SDS_P1;SDS_P2;PMS_P1;PMS_P2;Temp;Humidity;BMP_temperature;BMP_pressure;BME280_temperature;BME280_humidity;BME280_pressure;Samples;Min_cycle;Max_cycle;Signal;HPM_P1;HPM_P2
2022/10/30 00:01:25;;;;;;;18.13;13.27;;;14.60;99.90;;;;;;4939299;28;89780;-31
2022/10/30 00:03:50;;;;;;;19.52;11.30;;;14.60;99.90;;;;;;4939196;28;89643;-30
2022/10/30 00:06:16;;;;;;;17.35;10.48;;;14.60;99.90;;;;;;4938672;28;90191;-29
2022/10/30 00:08:41;;;;;;;16.90;11.63;;;14.60;99.90;;;;;;4938718;28;91572;-29
2022/10/30 00:11:10;;;;;;;20.95;11.70;;;14.70;99.90;;;;;;4939242;28;88907;-30
2022/10/30 00:13:35;;;;;;;;;;;14.70;99.90;;;;;;4939378;28;90344;-30
2022/10/30 00:16:04;;;;;;;14.75;9.70;;;14.80;99.90;;;;;;4941018;28;89874;-30
2022/10/30 00:18:30;;;;;;;23.95;11.07;;;14.80;99.90;;;;;;4939966;28;90697;-30
2022/10/30 00:20:56;;;;;;;18.25;10.63;;;14.90;99.90;;;;;;4938338;28;89764;-32
2022/10/30 00:23:21;;;;;;;21.60;11.10;;;15.00;99.90;;;;;;4940008;28;90274;-27
2022/10/30 00:25:47;;;;;;;19.48;12.38;;;15.00;99.90;;;;;;4938811;28;88299;-31
2022/10/30 00:28:12;;;;;;;14.10;10.18;;;15.10;99.90;;;;;;4938767;28;90460;-31
2022/10/30 00:30:38;;;;;;;27.00;12.25;;;15.10;99.90;;;;;;4938621;28;92071;-31
2022/10/30 00:33:04;;;;;;;19.15;11.00;;;15.10;99.90;;;;;;4938303;28;90510;-29
2022/10/30 00:35:30;;;;;;;21.65;11.90;;;15.10;99.90;;;;;;4939532;28;88825;-30
2022/10/30 00:37:56;;;;;;;15.05;11.35;;;15.10;99.90;;;;;;4937932;28;89858;-28
2022/10/30 00:40:22;;;;;;;15.65;10.77;;;15.20;99.90;;;;;;4938588;28;90086;-31
2022/10/30 00:42:47;;;;;;;16.83;11.68;;;15.20;99.90;;;;;;4939199;28;90081;-30
2022/10/30 00:45:15;;;;;;;15.68;12.13;;;15.20;99.90;;;;;;4938090;28;89317;-31
2022/10/30 00:47:50;;;;;;;15.35;9.75;;;15.20;99.90;;;;;;4938837;28;90966;-33
2022/10/30 00:50:25;;;;;;;17.65;11.82;;;15.20;99.90;;;;;;4939607;28;89063;-28
2022/10/30 00:52:57;;;;;;;15.85;11.43;;;15.10;99.90;;;;;;4941690;28;89508;-30
2022/10/30 00:55:28;;;;;;;22.15;11.82;;;15.10;99.90;;;;;;4941449;28;90143;-29
2022/10/30 00:57:55;;;;;;;18.48;12.02;;;15.00;99.90;;;;;;4942454;28;90335;-28
2022/10/30 01:00:23;;;;;;;25.15;11.45;;;15.00;99.90;;;;;;4941280;28;89613;-29
2022/10/30 01:02:50;;;;;;;21.30;12.43;;;15.00;99.90;;;;;;4941368;28;90353;-31
2022/10/30 01:05:18;;;;;;;26.20;13.03;;;15.00;99.90;;;;;;4941876;28;87723;-29
2022/10/30 01:07:44;;;;;;;22.58;12.80;;;14.90;99.90;;;;;;4941616;28;90300;-29
2022/10/30 01:10:11;;;;;;;14.55;11.55;;;14.90;99.90;;;;;;4941884;28;89496;-30
2022/10/30 01:12:37;;;;;;;23.52;12.65;;;14.90;99.90;;;;;;4942426;28;89407;-30
2022/10/30 01:15:03;;;;;;;19.40;12.82;;;14.80;99.90;;;;;;4941279;28;88621;-30
2022/10/30 01:17:46;;;;;;;19.08;11.52;;;14.80;99.90;;;;;;4941126;28;90346;-29
2022/10/30 01:20:19;;;;;;;17.48;11.88;;;14.80;99.90;;;;;;4941360;28;90945;-30
2022/10/30 01:22:55;;;;;;;15.75;12.30;;;14.80;99.90;;;;;;4941122;28;90811;-31
2022/10/30 01:25:45;;;;;;;20.38;13.23;;;14.70;99.90;;;;;;4941564;28;89885;-29
2022/10/30 01:28:27;;;;;;;17.23;11.77;;;14.70;99.90;;;;;;4941774;28;90154;-29
2022/10/30 01:31:07;;;;;;;21.40;12.40;;;14.60;99.90;;;;;;4941129;28;89951;-30
2022/10/30 01:33:36;;;;;;;26.50;14.35;;;14.50;99.90;;;;;;4941547;28;89709;-32
2022/10/30 01:36:32;;;;;;;21.23;13.13;;;14.50;99.90;;;;;;4940759;28;89106;-30
2022/10/30 01:39:12;;;;;;;17.35;11.70;;;14.50;99.90;;;;;;4922764;28;90509;-30
2022/10/30 01:41:37;;;;;;;23.48;11.23;;;14.40;99.90;;;;;;4939427;28;89622;-33
2022/10/30 01:44:10;;;;;;;25.15;12.55;;;14.40;99.90;;;;;;4940971;28;89694;-27
2022/10/30 01:46:53;;;;;;;20.77;12.95;;;14.40;99.90;;;;;;4941221;28;90348;-31
2022/10/30 01:49:47;;;;;;;18.40;12.35;;;14.40;99.90;;;;;;4941029;28;90722;-28
2022/10/30 01:52:24;;;;;;;21.35;12.68;;;14.30;99.90;;;;;;4941047;28;89790;-30
2022/10/30 01:54:50;;;;;;;18.48;13.20;;;14.30;99.90;;;;;;4940664;28;89465;-30
2022/10/30 01:57:43;;;;;;;16.45;11.57;;;14.30;99.90;;;;;;4941426;28;88147;-29
2022/10/30 02:00:12;;;;;;;20.25;12.98;;;14.30;99.90;;;;;;4940829;28;90001;-33
2022/10/30 02:02:38;;;;;;;31.05;12.52;;;14.30;99.90;;;;;;4940323;28;89603;-32
2022/10/30 02:05:07;;;;;;;15.00;11.20;;;14.30;99.90;;;;;;4940586;28;89698;-33
2022/10/30 02:07:35;;;;;;;12.88;10.52;;;14.20;99.90;;;;;;4940646;28;87740;-29
2022/10/30 02:10:01;;;;;;;14.48;10.82;;;14.20;99.90;;;;;;4940829;28;90592;-30
2022/10/30 02:12:26;;;;;;;17.88;12.90;;;14.10;99.90;;;;;;4940167;28;89959;-30
2022/10/30 02:14:56;;;;;;;24.08;14.00;;;14.20;99.90;;;;;;4938994;28;90712;-29
2022/10/30 02:17:22;;;;;;;16.77;11.18;;;14.10;99.90;;;;;;4940992;28;88195;-29
2022/10/30 02:19:48;;;;;;;18.23;12.75;;;14.00;99.90;;;;;;4940012;28;90482;-33
2022/10/30 02:22:14;;;;;;;13.80;11.43;;;14.00;99.90;;;;;;4941272;28;89525;-29
2022/10/30 02:24:39;;;;;;;19.08;12.30;;;14.00;99.90;;;;;;4940187;28;89941;-33
2022/10/30 02:27:05;;;;;;;23.45;12.27;;;13.90;99.90;;;;;;4940881;28;88872;-29
2022/10/30 02:29:30;;;;;;;15.23;10.80;;;13.90;99.90;;;;;;4940582;28;89829;-29
2022/10/30 02:31:56;;;;;;;28.50;11.77;;;13.90;99.90;;;;;;4940705;28;89637;-31
2022/10/30 02:34:22;;;;;;;18.33;11.10;;;13.90;99.90;;;;;;4940757;28;89619;-32
2022/10/30 02:36:48;;;;;;;13.82;10.98;;;13.80;99.90;;;;;;4939168;28;89988;-33
2022/10/30 02:39:13;;;;;;;16.52;11.63;;;13.80;99.90;;;;;;4940627;28;90054;-32
2022/10/30 02:41:39;;;;;;;18.42;12.05;;;13.80;99.90;;;;;;4939669;28;89769;-30
2022/10/30 02:44:05;;;;;;;22.33;12.07;;;13.80;99.90;;;;;;4940733;28;88567;-30
2022/10/30 02:46:31;;;;;;;18.95;13.40;;;13.80;99.90;;;;;;4940311;28;89758;-29
2022/10/30 02:48:57;;;;;;;19.52;10.90;;;13.80;99.90;;;;;;4939686;28;90576;-31
2022/10/30 02:51:22;;;;;;;24.77;13.00;;;13.90;99.90;;;;;;4940697;28;89901;-27
2022/10/30 02:53:48;;;;;;;22.90;12.63;;;13.90;99.90;;;;;;4939979;28;89467;-29
2022/10/30 02:56:14;;;;;;;17.73;13.05;;;13.90;99.90;;;;;;4940375;28;89198;-31
2022/10/30 02:58:40;;;;;;;16.38;12.68;;;13.90;99.90;;;;;;4940098;28;90576;-32
2022/10/30 03:01:14;;;;;;;22.63;14.13;;;13.80;99.90;;;;;;4939770;28;90843;-30
2022/10/30 03:03:40;;;;;;;16.95;12.75;;;13.90;99.90;;;;;;4938215;28;90346;-32
2022/10/30 03:06:08;;;;;;;16.27;11.88;;;13.90;99.90;;;;;;4939651;28;88469;-31
2022/10/30 03:08:34;;;;;;;17.75;11.55;;;13.90;99.90;;;;;;4939527;28;90289;-30
2022/10/30 03:11:19;;;;;;;12.40;11.00;;;13.80;99.90;;;;;;4940013;28;90463;-28
2022/10/30 03:13:45;;;;;;;17.85;11.52;;;13.80;99.90;;;;;;4939100;28;89505;-28
2022/10/30 03:16:17;;;;;;;18.05;12.30;;;13.80;99.90;;;;;;4939184;28;87777;-27
2022/10/30 03:18:42;;;;;;;21.40;12.43;;;13.80;99.90;;;;;;4939808;28;90561;-30
2022/10/30 03:21:10;;;;;;;16.45;11.07;;;13.70;99.90;;;;;;4939942;28;89451;-28
2022/10/30 03:23:36;;;;;;;24.50;11.45;;;13.60;99.90;;;;;;4940143;28;90010;-29
2022/10/30 03:26:03;;;;;;;16.35;11.27;;;13.60;99.90;;;;;;4938640;28;89611;-32
2022/10/30 03:28:30;;;;;;;16.17;11.55;;;13.50;99.90;;;;;;4938833;28;90024;-30
2022/10/30 03:31:04;;;;;;;13.93;11.27;;;13.50;99.90;;;;;;4939843;28;89677;-29
2022/10/30 03:33:31;;;;;;;16.40;11.82;;;13.50;99.90;;;;;;4940019;28;89338;-28
2022/10/30 03:35:57;;;;;;;16.15;12.93;;;13.50;99.90;;;;;;4939402;28;88588;-30
2022/10/30 03:38:22;;;;;;;15.95;12.38;;;13.50;99.90;;;;;;4939183;28;89311;-32
2022/10/30 03:40:48;;;;;;;23.38;12.23;;;13.40;99.90;;;;;;4939828;28;89882;-28
2022/10/30 03:43:14;;;;;;;14.77;11.65;;;13.40;99.90;;;;;;4939688;28;90530;-30
2022/10/30 03:45:44;;;;;;;17.80;12.45;;;13.40;99.90;;;;;;4938763;28;89169;-33
2022/10/30 03:48:10;;;;;;;16.45;10.75;;;13.30;99.90;;;;;;4938857;28;89322;-31
2022/10/30 03:50:35;;;;;;;17.73;12.85;;;13.30;99.90;;;;;;4939173;28;89757;-29
2022/10/30 03:53:02;;;;;;;17.92;11.70;;;13.30;99.90;;;;;;4938959;28;90259;-28
2022/10/30 03:55:28;;;;;;;24.70;14.57;;;13.30;99.90;;;;;;4939492;28;90053;-28
2022/10/30 03:57:53;;;;;;;20.88;12.10;;;13.30;99.90;;;;;;4939208;28;89120;-30
2022/10/30 04:00:19;;;;;;;19.17;12.13;;;13.30;99.90;;;;;;4939445;28;89287;-32
2022/10/30 04:02:49;;;;;;;15.63;11.18;;;13.20;99.90;;;;;;4939365;28;89672;-29
2022/10/30 04:05:17;;;;;;;13.43;11.48;;;13.20;99.90;;;;;;4939644;28;88143;-30
2022/10/30 04:07:43;;;;;;;22.10;12.63;;;13.20;99.90;;;;;;4938818;28;90107;-32
2022/10/30 04:10:09;;;;;;;12.85;11.48;;;13.10;99.90;;;;;;4939219;28;89367;-31
2022/10/30 04:12:35;;;;;;;17.58;13.18;;;13.10;99.90;;;;;;4939561;28;89699;-27
2022/10/30 04:15:01;;;;;;;19.73;11.30;;;13.00;99.90;;;;;;4936767;28;90221;-31
2022/10/30 04:17:26;;;;;;;18.80;12.15;;;13.10;99.90;;;;;;4939408;28;91287;-32
2022/10/30 04:19:52;;;;;;;14.80;11.75;;;13.00;99.90;;;;;;4938827;28;89876;-29
2022/10/30 04:22:17;;;;;;;13.85;10.10;;;13.00;99.90;;;;;;4939108;28;89039;-31
2022/10/30 04:24:44;;;;;;;17.85;12.23;;;13.00;99.90;;;;;;4939292;28;88691;-28
2022/10/30 04:27:12;;;;;;;17.20;13.23;;;12.90;99.90;;;;;;4941221;28;90217;-32
2022/10/30 04:29:37;;;;;;;16.45;10.90;;;12.90;99.90;;;;;;4941930;28;89552;-31
2022/10/30 04:32:03;;;;;;;12.43;11.13;;;12.90;99.90;;;;;;4942417;28;89435;-30
2022/10/30 04:34:29;;;;;;;18.17;12.50;;;12.90;99.90;;;;;;4942189;28;88197;-29
2022/10/30 04:36:54;;;;;;;18.27;11.38;;;12.90;99.90;;;;;;4976669;22;90382;-30
2022/10/30 04:39:20;;;;;;;20.55;12.32;;;12.80;99.90;;;;;;4941892;28;90625;-29
2022/10/30 04:41:46;;;;;;;22.60;12.75;;;12.80;99.90;;;;;;4941556;28;90729;-30
2022/10/30 04:44:11;;;;;;;16.30;12.38;;;12.80;99.90;;;;;;4942478;28;88143;-30
2022/10/30 04:46:37;;;;;;;22.15;11.93;;;12.70;99.90;;;;;;4942242;28;90396;-29
2022/10/30 04:49:02;;;;;;;17.20;11.95;;;12.70;99.90;;;;;;4941544;28;89034;-29
2022/10/30 04:51:28;;;;;;;20.42;14.02;;;12.70;99.90;;;;;;4941641;28;89451;-31
2022/10/30 04:53:53;;;;;;;17.20;11.82;;;12.70;99.90;;;;;;4942357;28;87831;-30
2022/10/30 04:56:19;;;;;;;20.73;13.88;;;12.70;99.90;;;;;;4942229;28;91559;-28
2022/10/30 04:58:45;;;;;;;17.50;13.43;;;12.70;99.90;;;;;;4942163;28;89576;-28
2022/10/30 05:01:11;;;;;;;16.13;12.95;;;12.70;99.90;;;;;;4942586;28;89035;-29
2022/10/30 05:03:36;;;;;;;18.48;13.77;;;12.70;99.90;;;;;;4941461;28;88779;-27
2022/10/30 05:06:11;;;;;;;17.08;13.93;;;12.70;99.90;;;;;;4941837;28;90214;-31
2022/10/30 05:08:37;;;;;;;18.02;13.05;;;12.70;99.90;;;;;;4941372;28;89659;-30
2022/10/30 05:11:04;;;;;;;20.42;13.48;;;12.60;99.90;;;;;;4941494;28;88558;-26
2022/10/30 05:13:29;;;;;;;14.63;12.20;;;12.60;99.90;;;;;;4942194;28;88349;-28
2022/10/30 05:15:55;;;;;;;17.88;12.98;;;12.60;99.90;;;;;;4941399;28;90157;-29
2022/10/30 05:18:21;;;;;;;30.92;13.80;;;12.60;99.90;;;;;;4942088;28;89817;-28
2022/10/30 05:20:46;;;;;;;17.85;12.30;;;12.60;99.90;;;;;;4941002;28;90773;-32
2022/10/30 05:23:12;;;;;;;20.77;13.65;;;12.60;99.90;;;;;;4928317;28;89362;-32
2022/10/30 05:25:38;;;;;;;18.42;12.90;;;12.60;99.90;;;;;;4941559;28;91110;-32
2022/10/30 05:28:05;;;;;;;21.48;13.27;;;12.70;99.90;;;;;;4941107;28;90736;-31
2022/10/30 05:30:32;;;;;;;16.13;13.80;;;12.70;99.90;;;;;;4941366;28;89001;-30
2022/10/30 05:33:05;;;;;;;23.45;14.63;;;12.70;99.90;;;;;;4941357;28;88756;-32
2022/10/30 05:35:33;;;;;;;24.05;15.00;;;12.70;99.90;;;;;;4941754;28;89921;-32
2022/10/30 05:37:59;;;;;;;15.60;11.73;;;12.70;99.90;;;;;;4940050;28;89145;-31
2022/10/30 05:40:25;;;;;;;32.00;13.75;;;12.70;99.90;;;;;;4941202;28;90545;-27
2022/10/30 05:42:51;;;;;;;19.05;13.35;;;12.70;99.90;;;;;;4941782;28;90024;-33
2022/10/30 05:45:17;;;;;;;24.42;13.63;;;12.70;99.90;;;;;;4941524;28;89746;-28
2022/10/30 05:47:43;;;;;;;19.42;13.23;;;12.70;99.90;;;;;;4940055;28;89699;-28
2022/10/30 05:50:11;;;;;;;16.95;11.77;;;12.70;99.90;;;;;;4941231;28;89769;-31
2022/10/30 05:52:37;;;;;;;14.00;12.52;;;12.70;99.90;;;;;;4941354;28;90260;-28
2022/10/30 05:55:03;;;;;;;21.67;14.05;;;12.70;99.90;;;;;;4940908;28;89473;-29
2022/10/30 05:57:29;;;;;;;18.55;14.68;;;12.70;99.90;;;;;;4941097;28;90529;-32
2022/10/30 05:59:55;;;;;;;31.33;14.95;;;12.80;99.90;;;;;;4940868;28;89870;-30
2022/10/30 06:02:21;;;;;;;17.55;12.52;;;12.80;99.90;;;;;;4941789;28;89329;-33
2022/10/30 06:04:46;;;;;;;18.83;13.68;;;12.70;99.90;;;;;;4940727;28;90200;-30
2022/10/30 06:07:12;;;;;;;20.10;13.68;;;12.80;99.90;;;;;;4940641;28;89667;-28
2022/10/30 06:09:38;;;;;;;16.10;12.02;;;12.80;99.90;;;;;;4941209;28;89511;-30
2022/10/30 06:12:03;;;;;;;29.95;16.17;;;12.80;99.90;;;;;;4940496;28;88888;-31
2022/10/30 06:14:29;;;;;;;16.83;13.95;;;12.80;99.90;;;;;;4940773;28;90620;-31
2022/10/30 06:16:55;;;;;;;23.80;15.60;;;12.80;99.90;;;;;;4940496;28;92530;-29
2022/10/30 06:19:20;;;;;;;17.70;13.93;;;12.80;99.90;;;;;;4940285;28;90342;-28
2022/10/30 06:21:46;;;;;;;22.67;13.77;;;12.80;99.90;;;;;;4941036;28;88248;-32
2022/10/30 06:24:12;;;;;;;19.20;14.65;;;12.80;99.90;;;;;;4940266;28;90295;-31
2022/10/30 06:26:37;;;;;;;18.60;13.20;;;12.90;99.90;;;;;;4941268;28;89515;-29
2022/10/30 06:29:03;;;;;;;27.48;15.27;;;12.90;99.90;;;;;;4940088;28;90748;-29
2022/10/30 06:31:28;;;;;;;22.27;13.18;;;12.90;99.90;;;;;;4940489;28;88304;-28
2022/10/30 06:33:54;;;;;;;18.88;14.27;;;12.90;99.90;;;;;;4940578;28;90710;-31
2022/10/30 06:36:19;;;;;;;21.80;15.15;;;12.90;99.90;;;;;;4939584;28;89615;-29
2022/10/30 06:38:45;;;;;;;18.98;13.10;;;12.90;99.90;;;;;;4940947;28;89511;-31
2022/10/30 06:41:11;;;;;;;16.45;14.02;;;12.90;99.90;;;;;;4939874;28;89674;-30
2022/10/30 06:43:36;;;;;;;18.35;13.20;;;13.00;99.90;;;;;;4940761;28;90370;-28
2022/10/30 06:46:02;;;;;;;19.77;13.25;;;13.00;99.90;;;;;;4939964;28;91296;-29
2022/10/30 06:48:28;;;;;;;19.58;15.88;;;13.00;99.90;;;;;;4940286;28;89191;-28
2022/10/30 06:50:58;;;;;;;20.77;14.30;;;13.00;99.90;;;;;;4939708;28;87749;-29
2022/10/30 06:53:24;;;;;;;25.30;15.45;;;13.10;99.90;;;;;;4940159;28;90410;-28
2022/10/30 06:55:57;;;;;;;23.27;16.38;;;13.10;99.90;;;;;;4938928;28;89708;-27
2022/10/30 06:58:23;;;;;;;25.65;15.38;;;13.10;99.90;;;;;;4939525;28;89602;-28
2022/10/30 07:00:48;;;;;;;20.77;14.20;;;13.10;99.90;;;;;;4938546;28;89056;-30
2022/10/30 07:03:14;;;;;;;23.42;14.18;;;13.10;99.90;;;;;;4939523;28;89962;-31
2022/10/30 07:05:40;;;;;;;19.33;14.73;;;13.20;99.90;;;;;;4938668;28;90534;-32
2022/10/30 07:08:05;;;;;;;19.10;13.82;;;13.20;99.90;;;;;;4940013;28;90334;-32
2022/10/30 07:10:31;;;;;;;17.25;13.23;;;13.20;99.90;;;;;;4939769;28;88734;-30
2022/10/30 07:12:57;;;;;;;22.38;13.93;;;13.20;99.90;;;;;;4939410;28;89866;-30
2022/10/30 07:15:24;;;;;;;22.55;15.32;;;13.20;99.90;;;;;;4940185;28;89798;-30
2022/10/30 07:17:58;;;;;;;25.33;14.90;;;13.20;99.90;;;;;;4937328;28;91314;-29
2022/10/30 07:20:27;;;;;;;20.42;15.50;;;13.20;99.90;;;;;;4939476;28;88190;-29
2022/10/30 07:22:52;;;;;;;22.23;15.70;;;13.30;99.90;;;;;;4939170;28;89878;-29
2022/10/30 07:25:18;;;;;;;24.08;16.17;;;13.30;99.90;;;;;;4938958;28;89253;-31
2022/10/30 07:27:52;;;;;;;27.10;15.00;;;13.30;99.90;;;;;;4941068;28;89844;-28
2022/10/30 07:30:20;;;;;;;24.65;14.73;;;13.40;99.90;;;;;;4935673;28;89447;-29
2022/10/30 07:32:45;;;;;;;24.45;15.25;;;13.40;99.90;;;;;;4933992;28;90374;-30
2022/10/30 07:35:13;;;;;;;19.20;13.90;;;13.40;99.90;;;;;;4935665;28;90095;-30
2022/10/30 07:37:39;;;;;;;22.73;15.43;;;13.50;99.90;;;;;;4936969;28;90748;-29
2022/10/30 07:40:06;;;;;;;19.98;14.02;;;13.50;99.90;;;;;;4936669;28;88784;-28
2022/10/30 07:42:32;;;;;;;23.40;14.02;;;13.50;99.90;;;;;;4937282;28;89885;-31
2022/10/30 07:44:58;;;;;;;20.90;14.90;;;13.60;99.90;;;;;;4936529;28;89544;-29
2022/10/30 07:47:24;;;;;;;29.17;15.20;;;13.60;99.90;;;;;;4936302;28;89000;-29
2022/10/30 07:49:49;;;;;;;29.30;16.95;;;13.60;99.90;;;;;;4936878;28;89120;-29
2022/10/30 07:52:15;;;;;;;18.42;15.38;;;13.70;99.90;;;;;;4936592;28;89450;-29
2022/10/30 07:54:41;;;;;;;19.45;15.98;;;13.80;99.90;;;;;;4936475;28;89680;-32
2022/10/30 07:57:06;;;;;;;26.48;16.15;;;13.80;99.90;;;;;;4937105;28;90797;-31
2022/10/30 07:59:32;;;;;;;17.98;14.77;;;13.90;99.90;;;;;;4936197;28;90133;-32
2022/10/30 08:01:59;;;;;;;20.67;16.52;;;14.00;99.90;;;;;;4935130;28;89186;-28
2022/10/30 08:04:25;;;;;;;26.17;16.58;;;14.10;99.90;;;;;;4936219;28;89676;-30
2022/10/30 08:06:51;;;;;;;24.20;15.70;;;14.20;99.90;;;;;;4936813;28;89801;-30
2022/10/30 08:09:17;;;;;;;19.40;17.05;;;14.30;99.90;;;;;;4937465;28;89755;-30
2022/10/30 08:11:42;;;;;;;21.50;13.75;;;14.40;99.90;;;;;;4935498;28;91202;-30
2022/10/30 08:14:08;;;;;;;27.85;18.30;;;14.50;99.90;;;;;;4937255;28;89308;-28
2022/10/30 08:16:34;;;;;;;24.17;16.55;;;14.60;99.90;;;;;;4936861;28;89873;-29
2022/10/30 08:18:59;;;;;;;29.48;17.33;;;14.70;99.90;;;;;;4936691;28;89971;-28
2022/10/30 08:21:25;;;;;;;18.73;14.63;;;14.70;99.90;;;;;;4935783;28;90317;-29
2022/10/30 08:23:50;;;;;;;25.00;17.63;;;14.80;99.90;;;;;;4936143;28;89691;-30
2022/10/30 08:26:16;;;;;;;23.55;16.30;;;14.80;99.90;;;;;;4936875;28;89507;-30
2022/10/30 08:28:41;;;;;;;22.77;15.98;;;14.80;99.90;;;;;;4936227;28;88177;-27
2022/10/30 08:31:07;;;;;;;25.63;16.95;;;14.90;99.90;;;;;;4936699;28;90342;-28
2022/10/30 08:33:33;;;;;;;20.92;14.27;;;15.00;99.90;;;;;;4936546;28;89527;-31
2022/10/30 08:36:00;;;;;;;21.17;16.02;;;15.10;99.90;;;;;;4935958;28;89442;-31
2022/10/30 08:38:26;;;;;;;23.70;15.45;;;15.10;99.90;;;;;;4937491;28;88137;-28
2022/10/30 08:40:52;;;;;;;32.28;16.83;;;15.20;99.90;;;;;;4935605;28;89757;-30
2022/10/30 08:43:18;;;;;;;22.42;16.42;;;15.30;99.90;;;;;;4936303;28;90896;-28
2022/10/30 08:45:44;;;;;;;21.17;16.00;;;15.30;99.90;;;;;;4935653;28;90535;-31
2022/10/30 08:48:13;;;;;;;25.98;16.45;;;15.40;99.90;;;;;;4936848;28;89789;-32
2022/10/30 08:50:38;;;;;;;22.85;15.65;;;15.40;99.90;;;;;;4935901;28;90194;-30
2022/10/30 08:53:10;;;;;;;20.95;15.75;;;15.50;99.90;;;;;;4936759;28;89594;-28
2022/10/30 08:55:36;;;;;;;18.13;15.73;;;15.60;99.90;;;;;;4936684;28;89851;-30
2022/10/30 08:58:02;;;;;;;25.00;15.55;;;15.70;99.90;;;;;;4935991;28;88630;-31
2022/10/30 09:00:28;;;;;;;17.98;16.08;;;15.70;99.90;;;;;;4934525;28;90301;-31
2022/10/30 09:02:54;;;;;;;24.08;16.98;;;15.80;99.90;;;;;;4934939;28;90562;-31
2022/10/30 09:05:20;;;;;;;17.58;14.32;;;15.80;99.90;;;;;;4935534;28;89668;-32
2022/10/30 09:07:46;;;;;;;18.13;14.70;;;15.90;99.90;;;;;;4935935;28;89869;-29
2022/10/30 09:10:12;;;;;;;21.95;17.73;;;15.90;99.90;;;;;;4936205;28;89291;-32
2022/10/30 09:12:38;;;;;;;16.88;14.95;;;15.90;99.90;;;;;;4935651;28;89855;-32
2022/10/30 09:15:05;;;;;;;23.40;17.33;;;15.90;99.90;;;;;;4938709;28;89740;-32
2022/10/30 09:17:30;;;;;;;23.05;16.10;;;16.00;99.90;;;;;;4938827;28;89662;-31
2022/10/30 09:19:56;;;;;;;22.38;16.00;;;16.00;99.90;;;;;;4938772;28;88737;-30
2022/10/30 09:22:21;;;;;;;23.77;16.25;;;16.10;99.90;;;;;;4939675;28;90159;-30
2022/10/30 09:24:47;;;;;;;22.52;15.65;;;16.10;99.90;;;;;;4938012;28;89153;-31
2022/10/30 09:27:13;;;;;;;23.75;16.83;;;16.20;99.90;;;;;;4938955;28;90098;-29
2022/10/30 09:29:39;;;;;;;16.85;13.68;;;16.20;99.90;;;;;;4938396;28;90279;-31
2022/10/30 09:32:09;;;;;;;23.20;16.60;;;16.30;99.90;;;;;;4938680;28;90364;-30
2022/10/30 09:34:37;;;;;;;20.50;16.83;;;16.30;99.90;;;;;;4939530;28;91201;-34
2022/10/30 09:37:03;;;;;;;20.05;15.35;;;16.30;99.90;;;;;;4939108;28;88880;-32
2022/10/30 09:39:29;;;;;;;24.38;16.48;;;16.40;99.90;;;;;;4938855;28;89352;-31
2022/10/30 09:42:13;;;;;;;23.10;16.73;;;16.50;99.90;;;;;;4936523;28;90408;-30
2022/10/30 09:45:04;;;;;;;19.33;14.45;;;16.60;99.90;;;;;;4938461;28;90772;-30
2022/10/30 09:48:00;;;;;;;23.50;17.48;;;16.60;99.90;;;;;;4939947;28;89332;-32
2022/10/30 09:50:41;;;;;;;21.50;16.92;;;16.70;99.90;;;;;;4938767;28;90192;-29
2022/10/30 09:53:29;;;;;;;27.30;16.45;;;16.70;99.90;;;;;;4938823;28;89904;-31
2022/10/30 09:56:16;;;;;;;22.10;15.98;;;16.80;99.90;;;;;;4938927;28;89584;-33
2022/10/30 09:58:59;;;;;;;19.50;16.20;;;16.90;99.90;;;;;;4938936;28;89640;-28
2022/10/30 10:01:38;;;;;;;21.38;16.98;;;17.00;99.90;;;;;;4937912;28;89761;-28
2022/10/30 10:04:14;;;;;;;20.92;16.63;;;17.00;99.90;;;;;;4938175;28;89548;-30
2022/10/30 10:06:43;;;;;;;24.00;17.20;;;17.10;99.90;;;;;;4938884;28;89383;-31
2022/10/30 10:09:17;;;;;;;21.15;15.10;;;17.10;99.90;;;;;;4940237;28;88991;-32
2022/10/30 10:11:53;;;;;;;17.90;14.52;;;17.20;99.90;;;;;;4938764;28;89160;-29
2022/10/30 10:14:29;;;;;;;24.63;16.20;;;17.20;99.90;;;;;;4938358;28;89371;-34
2022/10/30 10:16:57;;;;;;;21.10;16.77;;;17.30;99.90;;;;;;4938009;28;90158;-29
2022/10/30 10:19:38;;;;;;;19.70;14.95;;;17.30;99.90;;;;;;4939202;28;88125;-30
2022/10/30 10:22:16;;;;;;;17.90;13.30;;;17.40;99.90;;;;;;4939450;28;90185;-29
2022/10/30 10:24:43;;;;;;;19.38;14.02;;;17.40;99.90;;;;;;4938248;28;90555;-31
2022/10/30 10:27:45;;;;;;;20.55;16.50;;;17.40;99.90;;;;;;4938814;28;90358;-32
2022/10/30 10:30:16;;;;;;;18.35;14.63;;;17.50;99.90;;;;;;4939569;28;88946;-30
2022/10/30 10:32:47;;;;;;;20.38;15.63;;;17.60;99.90;;;;;;4938627;28;90322;-31
2022/10/30 10:35:34;;;;;;;22.15;14.63;;;17.60;99.90;;;;;;4939657;28;89471;-29
2022/10/30 10:38:00;;;;;;;31.35;16.30;;;17.70;99.90;;;;;;4938477;28;90390;-36
2022/10/30 10:40:45;;;;;;;18.15;14.05;;;17.80;99.90;;;;;;4935294;28;89505;-33
2022/10/30 10:43:11;;;;;;;25.38;15.65;;;17.90;99.90;;;;;;4935715;28;90291;-33
2022/10/30 10:45:55;;;;;;;25.05;14.98;;;18.00;99.90;;;;;;4935008;28;89423;-34
2022/10/30 10:48:51;;;;;;;27.08;15.77;;;18.00;99.90;;;;;;4918529;28;89844;-33
2022/10/30 10:51:21;;;;;;;25.35;14.27;;;18.10;99.90;;;;;;4917900;28;89896;-32
2022/10/30 10:53:57;;;;;;;23.23;14.80;;;18.20;99.90;;;;;;4920923;28;91973;-35
2022/10/30 10:56:33;;;;;;;20.20;14.35;;;18.30;99.90;;;;;;4919880;28;90088;-32
2022/10/30 10:59:25;;;;;;;20.15;12.93;;;18.40;99.90;;;;;;4936551;28;89654;-33
2022/10/30 11:02:28;;;;;;;26.58;15.13;;;18.50;99.90;;;;;;4937520;28;88030;-34
2022/10/30 11:05:03;;;;;;;18.55;12.63;;;18.60;99.90;;;;;;4937833;28;89880;-33
2022/10/30 11:07:32;;;;;;;17.70;12.38;;;18.70;99.90;;;;;;4936848;28;89630;-33
2022/10/30 11:09:58;;;;;;;20.20;13.15;;;18.80;99.90;;;;;;4937555;28;89271;-31
2022/10/30 11:12:29;;;;;;;22.27;12.77;;;18.90;99.90;;;;;;4937851;28;88215;-31
2022/10/30 11:14:57;;;;;;;20.52;13.15;;;18.90;99.90;;;;;;4938137;28;91220;-32
2022/10/30 11:17:59;;;;;;;22.30;12.73;;;19.00;99.90;;;;;;4937800;28;90487;-35
2022/10/30 11:20:47;;;;;;;15.20;11.45;;;19.10;99.90;;;;;;4926699;28;90109;-33
2022/10/30 11:23:30;;;;;;;13.52;11.38;;;19.20;99.90;;;;;;4938306;28;89791;-31
2022/10/30 11:25:56;;;;;;;15.70;11.15;;;19.20;99.90;;;;;;4937135;28;90226;-31
2022/10/30 11:28:46;;;;;;;15.98;11.85;;;19.30;99.90;;;;;;4938039;28;90069;-35
2022/10/30 11:31:29;;;;;;;22.55;12.20;;;19.50;99.90;;;;;;4936116;28;89720;-33
2022/10/30 11:33:54;;;;;;;17.05;11.63;;;19.60;99.90;;;;;;4937746;28;89983;-32
2022/10/30 11:36:25;;;;;;;17.00;10.95;;;19.70;99.90;;;;;;4935441;28;90295;-30
2022/10/30 11:38:54;;;;;;;19.23;11.02;;;19.70;99.90;;;;;;4937174;28;89842;-33
2022/10/30 11:41:20;;;;;;;21.58;12.82;;;19.80;99.90;;;;;;4935563;28;88876;-31
2022/10/30 11:43:48;;;;;;;18.45;11.82;;;19.80;99.90;;;;;;4925785;28;90626;-31
2022/10/30 11:46:21;;;;;;;19.52;13.13;;;19.90;99.90;;;;;;4930958;28;90707;-30
2022/10/30 11:48:53;;;;;;;22.83;13.20;;;19.90;99.90;;;;;;4936600;28;89518;-31
2022/10/30 11:51:36;;;;;;;18.60;11.93;;;19.90;99.90;;;;;;4936415;28;89792;-34
2022/10/30 11:54:03;;;;;;;20.52;11.80;;;20.00;99.90;;;;;;4937492;28;88389;-33
2022/10/30 11:56:30;;;;;;;18.05;12.60;;;20.00;99.90;;;;;;4936618;28;90009;-32
2022/10/30 11:58:59;;;;;;;21.97;12.30;;;20.00;99.90;;;;;;4936287;28;90152;-34
2022/10/30 12:01:40;;;;;;;22.98;12.13;;;20.10;99.90;;;;;;4936279;28;89651;-30
2022/10/30 12:04:20;;;;;;;14.13;10.75;;;20.00;99.90;;;;;;4935703;28;89004;-35
2022/10/30 12:06:45;;;;;;;21.98;11.75;;;20.00;99.90;;;;;;4935719;28;90254;-31
2022/10/30 12:09:20;;;;;;;17.55;11.40;;;20.00;99.90;;;;;;4936105;28;90734;-32
2022/10/30 12:11:47;;;;;;;16.83;10.23;;;20.00;99.90;;;;;;4936394;28;90066;-31
2022/10/30 12:14:22;;;;;;;16.38;11.45;;;20.10;99.90;;;;;;4936623;28;87561;-33
2022/10/30 12:16:50;;;;;;;12.60;8.93;;;20.10;99.90;;;;;;4936991;28;90310;-30
2022/10/30 12:19:19;;;;;;;17.35;9.18;;;20.20;99.90;;;;;;4937860;28;89822;-30
2022/10/30 12:21:49;;;;;;;12.10;9.25;;;20.20;99.90;;;;;;4936743;28;89647;-32
2022/10/30 12:24:25;;;;;;;12.57;9.48;;;20.20;99.90;;;;;;4938217;28;88967;-32
2022/10/30 12:26:54;;;;;;;16.35;10.00;;;20.30;99.90;;;;;;4936352;28;90184;-32
2022/10/30 12:29:24;;;;;;;16.63;9.82;;;20.30;99.90;;;;;;4936148;28;89634;-31
2022/10/30 12:32:01;;;;;;;17.25;9.65;;;20.30;99.90;;;;;;4936166;28;90041;-31
2022/10/30 12:34:29;;;;;;;12.98;10.13;;;20.30;99.90;;;;;;4935402;28;90689;-33
2022/10/30 12:37:07;;;;;;;13.13;11.50;;;20.30;99.90;;;;;;4936140;28;89712;-30
2022/10/30 12:39:54;;;;;;;19.52;10.40;;;20.20;99.90;;;;;;4936951;28;89570;-33